RYR3TU EYKA-EGGD
Flight info
| Callsign | RYR3TU |
|---|---|
| Flight time | N/A |
| Altitude | 38000 |
| Route | GOJOM1A GOJOM DCT ADAXA DCT NINTA DCT KOLJA DCT TIDVU DCT LILBI DCT RAXLU DCT WEZPU DCT WANZA DCT BEDUM DCT SPY DCT NOGRO M40 SABER L980 LAM L179 SAWPE DCT YORQI DCT HAWFA DCT ZESPE DCT EMPAS DCT |
| Aircraft | B738/M-SDE2E3FGHIRWXY/LB1 |
Departure
| Time | 2026-04-14 11:33 |
|---|---|
| Airport | Kaunas International Airport (EYKA) |
Arrival
| Time | N/A |
|---|---|
| Airport | Bristol Airport (EGGD) |
| Time | Latitude | Longitude | Altitude | Speed | Heading |
|---|---|---|---|---|---|
| 2026-04-14 11:15 | 54.96588 | 24.07845 | 267 ft | 0 kts | 355° |
| 2026-04-14 11:27 | 54.96572 | 24.07847 | 267 ft | 4 kts | 350° |
| 2026-04-14 11:27 | 54.96546 | 24.07859 | 267 ft | 4 kts | 334° |
| 2026-04-14 11:28 | 54.96526 | 24.07885 | 267 ft | 4 kts | 298° |
| 2026-04-14 11:28 | 54.96521 | 24.07912 | 267 ft | 1 kts | 265° |
| 2026-04-14 11:28 | 54.96522 | 24.07917 | 267 ft | 0 kts | 265° |
| 2026-04-14 11:29 | 54.96521 | 24.07913 | 267 ft | 2 kts | 265° |
| 2026-04-14 11:30 | 54.96516 | 24.07811 | 267 ft | 15 kts | 264° |
| 2026-04-14 11:30 | 54.96503 | 24.07564 | 267 ft | 24 kts | 265° |
| 2026-04-14 11:30 | 54.96461 | 24.07340 | 267 ft | 20 kts | 194° |
| 2026-04-14 11:30 | 54.96335 | 24.07295 | 266 ft | 19 kts | 236° |
| 2026-04-14 11:31 | 54.96316 | 24.07068 | 267 ft | 19 kts | 264° |
| 2026-04-14 11:31 | 54.96304 | 24.06846 | 269 ft | 18 kts | 264° |
| 2026-04-14 11:31 | 54.96293 | 24.06631 | 270 ft | 17 kts | 265° |
| 2026-04-14 11:31 | 54.96281 | 24.06414 | 269 ft | 19 kts | 264° |
| 2026-04-14 11:32 | 54.96247 | 24.06185 | 267 ft | 21 kts | 236° |
| 2026-04-14 11:32 | 54.96259 | 24.06027 | 267 ft | 14 kts | 35° |
| 2026-04-14 11:32 | 54.96272 | 24.06186 | 267 ft | 13 kts | 85° |
| 2026-04-14 11:32 | 54.96285 | 24.06491 | 269 ft | 56 kts | 85° |
| 2026-04-14 11:33 | 54.96341 | 24.07632 | 264 ft | 130 kts | 85° |
| 2026-04-14 11:33 | 54.96437 | 24.09519 | 358 ft | 183 kts | 86° |
| 2026-04-14 11:33 | 54.96577 | 24.11870 | 941 ft | 201 kts | 87° |
| 2026-04-14 11:34 | 54.96859 | 24.17088 | 2442 ft | 221 kts | 87° |
| 2026-04-14 11:34 | 54.97016 | 24.19776 | 3237 ft | 226 kts | 87° |
| 2026-04-14 11:34 | 54.97254 | 24.22476 | 4065 ft | 232 kts | 74° |
| 2026-04-14 11:34 | 54.98163 | 24.24822 | 4983 ft | 240 kts | 44° |
| 2026-04-14 11:35 | 54.99712 | 24.26128 | 5388 ft | 268 kts | 10° |
| 2026-04-14 11:35 | 55.01626 | 24.26128 | 6083 ft | 277 kts | 358° |
| 2026-04-14 11:35 | 55.03538 | 24.25815 | 6850 ft | 282 kts | 356° |
| 2026-04-14 11:35 | 55.05537 | 24.25470 | 7598 ft | 286 kts | 356° |
| 2026-04-14 11:36 | 55.07527 | 24.25152 | 8383 ft | 289 kts | 357° |
| 2026-04-14 11:36 | 55.09513 | 24.24852 | 9211 ft | 289 kts | 357° |
| 2026-04-14 11:36 | 55.11495 | 24.24110 | 9940 ft | 297 kts | 333° |
| 2026-04-14 11:36 | 55.13075 | 24.21807 | 10679 ft | 299 kts | 305° |
| 2026-04-14 11:37 | 55.13920 | 24.18399 | 10918 ft | 317 kts | 276° |
| 2026-04-14 11:37 | 55.13964 | 24.14447 | 11137 ft | 335 kts | 266° |
| 2026-04-14 11:37 | 55.13864 | 24.10347 | 11563 ft | 347 kts | 265° |
| 2026-04-14 11:37 | 55.13746 | 24.06084 | 12226 ft | 351 kts | 264° |
| 2026-04-14 11:38 | 55.13639 | 24.01802 | 13028 ft | 352 kts | 265° |
| 2026-04-14 11:38 | 55.13547 | 23.97502 | 13715 ft | 357 kts | 265° |
| 2026-04-14 11:38 | 55.13453 | 23.93140 | 14444 ft | 358 kts | 266° |
| 2026-04-14 11:38 | 55.13362 | 23.88856 | 15215 ft | 356 kts | 267° |
| 2026-04-14 11:39 | 55.13275 | 23.84507 | 15915 ft | 358 kts | 268° |
| 2026-04-14 11:39 | 55.13189 | 23.80151 | 16741 ft | 355 kts | 269° |
| 2026-04-14 11:39 | 55.13100 | 23.75816 | 17497 ft | 356 kts | 269° |
| 2026-04-14 11:39 | 55.13014 | 23.71458 | 18018 ft | 363 kts | 269° |
| 2026-04-14 11:40 | 55.12914 | 23.67061 | 18691 ft | 362 kts | 270° |
| 2026-04-14 11:40 | 55.12810 | 23.62696 | 19525 ft | 357 kts | 271° |
| 2026-04-14 11:40 | 55.12709 | 23.58324 | 19944 ft | 363 kts | 271° |
| 2026-04-14 11:40 | 55.12610 | 23.53941 | 20379 ft | 368 kts | 271° |
| 2026-04-14 11:41 | 55.12507 | 23.49439 | 20926 ft | 369 kts | 272° |
| 2026-04-14 11:41 | 55.12402 | 23.44936 | 21464 ft | 371 kts | 272° |
| 2026-04-14 11:41 | 55.12295 | 23.40451 | 21960 ft | 374 kts | 272° |
| 2026-04-14 11:41 | 55.12184 | 23.35878 | 22453 ft | 377 kts | 272° |
| 2026-04-14 11:42 | 55.12070 | 23.31258 | 22918 ft | 379 kts | 272° |
| 2026-04-14 11:42 | 55.11956 | 23.26695 | 23414 ft | 381 kts | 272° |
| 2026-04-14 11:42 | 55.11837 | 23.22042 | 23872 ft | 384 kts | 272° |
| 2026-04-14 11:42 | 55.11717 | 23.17350 | 24249 ft | 387 kts | 272° |
| 2026-04-14 11:43 | 55.11594 | 23.12691 | 24655 ft | 388 kts | 272° |
| 2026-04-14 11:43 | 55.11469 | 23.07952 | 25053 ft | 390 kts | 271° |
| 2026-04-14 11:43 | 55.11341 | 23.03190 | 25381 ft | 393 kts | 271° |
| 2026-04-14 11:43 | 55.11211 | 22.98382 | 25715 ft | 396 kts | 271° |
| 2026-04-14 11:44 | 55.11188 | 22.93632 | 26080 ft | 396 kts | 275° |
| 2026-04-14 11:44 | 55.11269 | 22.88809 | 26476 ft | 397 kts | 276° |
| 2026-04-14 11:44 | 55.11390 | 22.83943 | 26833 ft | 399 kts | 276° |
| 2026-04-14 11:44 | 55.11515 | 22.79156 | 27165 ft | 401 kts | 276° |
| 2026-04-14 11:45 | 55.11637 | 22.74261 | 27506 ft | 403 kts | 276° |
| 2026-04-14 11:45 | 55.11749 | 22.69354 | 27838 ft | 405 kts | 275° |
| 2026-04-14 11:45 | 55.11853 | 22.64419 | 28181 ft | 406 kts | 275° |
| 2026-04-14 11:45 | 55.11950 | 22.59472 | 28503 ft | 408 kts | 275° |
| 2026-04-14 11:46 | 55.12040 | 22.54551 | 28805 ft | 410 kts | 275° |
| 2026-04-14 11:46 | 55.12128 | 22.49556 | 29117 ft | 412 kts | 275° |
| 2026-04-14 11:46 | 55.12216 | 22.44498 | 29303 ft | 416 kts | 274° |
| 2026-04-14 11:46 | 55.12314 | 22.39407 | 29494 ft | 420 kts | 274° |
| 2026-04-14 11:47 | 55.12395 | 22.34338 | 29822 ft | 421 kts | 274° |
| 2026-04-14 11:47 | 55.12471 | 22.29214 | 30164 ft | 422 kts | 274° |
| 2026-04-14 11:47 | 55.12544 | 22.24064 | 30465 ft | 423 kts | 274° |
| 2026-04-14 11:47 | 55.12617 | 22.18933 | 30781 ft | 422 kts | 274° |
| 2026-04-14 11:48 | 55.12688 | 22.13813 | 31139 ft | 420 kts | 274° |
| 2026-04-14 11:48 | 55.12734 | 22.10427 | 31372 ft | 419 kts | 274° |
| 2026-04-14 11:48 | 55.12825 | 22.03664 | 31779 ft | 419 kts | 274° |
| 2026-04-14 11:48 | 55.12870 | 22.00289 | 31963 ft | 419 kts | 274° |
| 2026-04-14 11:49 | 55.12957 | 21.93523 | 32393 ft | 417 kts | 274° |
| 2026-04-14 11:49 | 55.13019 | 21.88461 | 32720 ft | 416 kts | 274° |
| 2026-04-14 11:49 | 55.13059 | 21.85104 | 32873 ft | 416 kts | 273° |
| 2026-04-14 11:49 | 55.13119 | 21.80032 | 33059 ft | 418 kts | 273° |
| 2026-04-14 11:50 | 55.13176 | 21.74932 | 33316 ft | 418 kts | 273° |
| 2026-04-14 11:50 | 55.13231 | 21.69862 | 33682 ft | 416 kts | 273° |
| 2026-04-14 11:50 | 55.13283 | 21.64814 | 34027 ft | 414 kts | 273° |
| 2026-04-14 11:51 | 55.13382 | 21.54805 | 34474 ft | 414 kts | 273° |
| 2026-04-14 11:51 | 55.13428 | 21.49755 | 34620 ft | 416 kts | 273° |
| 2026-04-14 11:51 | 55.13473 | 21.44679 | 34787 ft | 417 kts | 273° |
| 2026-04-14 11:51 | 55.13516 | 21.39595 | 34978 ft | 417 kts | 273° |
| 2026-04-14 11:52 | 55.13556 | 21.34565 | 35144 ft | 418 kts | 273° |
| 2026-04-14 11:52 | 55.13593 | 21.29486 | 35301 ft | 419 kts | 272° |
| 2026-04-14 11:52 | 55.13622 | 21.24360 | 35479 ft | 419 kts | 272° |
| 2026-04-14 11:52 | 55.13678 | 21.19312 | 35650 ft | 420 kts | 272° |
| 2026-04-14 11:53 | 55.13718 | 21.14202 | 35810 ft | 421 kts | 272° |
| 2026-04-14 11:53 | 55.13745 | 21.09071 | 35979 ft | 421 kts | 272° |
| 2026-04-14 11:53 | 55.13768 | 21.03934 | 36135 ft | 422 kts | 272° |
| 2026-04-14 11:53 | 55.13788 | 20.98785 | 36289 ft | 422 kts | 272° |
| 2026-04-14 11:54 | 55.13807 | 20.93702 | 36451 ft | 423 kts | 272° |
| 2026-04-14 11:54 | 55.13826 | 20.88551 | 36602 ft | 423 kts | 272° |
| 2026-04-14 11:54 | 55.13844 | 20.83407 | 36750 ft | 424 kts | 272° |
| 2026-04-14 11:54 | 55.13860 | 20.78250 | 36900 ft | 424 kts | 271° |
| 2026-04-14 11:55 | 55.13875 | 20.73129 | 37045 ft | 424 kts | 271° |
| 2026-04-14 11:55 | 55.13901 | 20.67964 | 37231 ft | 424 kts | 271° |
| 2026-04-14 11:55 | 55.13912 | 20.62812 | 37386 ft | 424 kts | 271° |
| 2026-04-14 11:55 | 55.13915 | 20.57648 | 37481 ft | 425 kts | 271° |
| 2026-04-14 11:56 | 55.13919 | 20.47310 | 37641 ft | 428 kts | 271° |
| 2026-04-14 11:56 | 55.13919 | 20.36828 | 37805 ft | 431 kts | 271° |
| 2026-04-14 11:57 | 55.13908 | 20.26338 | 37950 ft | 434 kts | 270° |
| 2026-04-14 11:57 | 55.13909 | 20.21050 | 38053 ft | 435 kts | 270° |
| 2026-04-14 11:57 | 55.13897 | 20.15741 | 38132 ft | 435 kts | 270° |
| 2026-04-14 11:58 | 55.13883 | 20.10527 | 38235 ft | 433 kts | 270° |
| 2026-04-14 11:58 | 55.13867 | 20.05240 | 38254 ft | 435 kts | 270° |
| 2026-04-14 11:58 | 55.13831 | 19.94604 | 38278 ft | 438 kts | 269° |
| 2026-04-14 11:59 | 55.13788 | 19.83914 | 38274 ft | 442 kts | 269° |
| 2026-04-14 11:59 | 55.13735 | 19.73190 | 38268 ft | 444 kts | 269° |
| 2026-04-14 12:00 | 55.13671 | 19.62376 | 38259 ft | 445 kts | 269° |
| 2026-04-14 12:00 | 55.13610 | 19.51537 | 38247 ft | 446 kts | 268° |
| 2026-04-14 12:01 | 55.13480 | 19.40743 | 38254 ft | 446 kts | 269° |
| 2026-04-14 12:01 | 55.13401 | 19.29887 | 38256 ft | 446 kts | 269° |
| 2026-04-14 12:02 | 55.13313 | 19.19069 | 38253 ft | 445 kts | 269° |
| 2026-04-14 12:02 | 55.13206 | 19.08284 | 38242 ft | 444 kts | 268° |
| 2026-04-14 12:03 | 55.13085 | 18.97471 | 38240 ft | 444 kts | 268° |
| 2026-04-14 12:03 | 55.12978 | 18.86753 | 38235 ft | 443 kts | 267° |
| 2026-04-14 12:04 | 55.12808 | 18.75993 | 38246 ft | 442 kts | 268° |
| 2026-04-14 12:04 | 55.12658 | 18.65316 | 38229 ft | 441 kts | 268° |
| 2026-04-14 12:05 | 55.12504 | 18.54579 | 38233 ft | 441 kts | 268° |
| 2026-04-14 12:05 | 55.12340 | 18.43908 | 38230 ft | 440 kts | 268° |
| 2026-04-14 12:06 | 55.12163 | 18.33184 | 38229 ft | 440 kts | 267° |
| 2026-04-14 12:06 | 55.11980 | 18.22527 | 38217 ft | 439 kts | 267° |
| 2026-04-14 12:07 | 55.11777 | 18.11816 | 38221 ft | 439 kts | 267° |
| 2026-04-14 12:07 | 55.11559 | 18.01211 | 38219 ft | 439 kts | 267° |
| 2026-04-14 12:08 | 55.11364 | 17.90541 | 38208 ft | 439 kts | 267° |